Lulu Pass Weather Station

This weather station provides temperature, relative humidity (RH), wind speed, gust or max wind speed, and wind direction at 10020ft near Lulu Pass at the head of Fisher Creek. This data can be used with temperature and precipitation data from the Fisher Creek SNOTEL site.

This weather station was purchased by the Friends of the Avalanche Center.

If the data has not been updated recently you can view it directly on datagarrison.com

Elevation
10020ft
Jump to table bottom
Date Time Temperature
deg F
RH, % Wind Speed Wind Gust Wind Direction
05/27/22 17:00 43.8 67 13 31 SW - 241
05/27/22 16:00 42.6 66 14 29 SW - 230
05/27/22 15:00 43.7 65 16 33 SW - 206
05/27/22 14:00 44.3 65 13 31 SW - 222
05/27/22 13:00 43.4 76 16 32 SW - 215
05/27/22 12:00 39.4 85 14 34 SW - 220
05/27/22 11:00 38.7 92 11 26 SW - 233
05/27/22 10:00 37.8 96 12 34 SW - 239
05/27/22 09:00 36.5 97 17 34 SW - 212
05/27/22 08:00 36.6 95 18 37 SW - 204
05/27/22 07:00 37.3 92 17 42 SW - 209
05/27/22 06:00 36.6 83 16 39 SW - 208
05/27/22 05:00 40.0 83 13 26 SW - 206
05/27/22 04:00 39.0 81 15 45 SW - 215
05/27/22 03:00 39.5 85 10 21 W - 284
05/27/22 02:00 39.5 71 11 30 SW - 244
05/27/22 01:00 42.7 73 12 31 SW - 234
05/27/22 00:00 43.5 66 24 42 S - 191
05/26/22 23:00 43.2 71 19 40 S - 171
05/26/22 22:00 42.6 71 16 33 S - 164
05/26/22 21:00 41.6 66 16 42 SW - 247
05/26/22 20:00 47.7 44 9 20 S - 191
05/26/22 19:00 48.2 42 10 16 S - 192
05/26/22 18:00 49.9 39 6 14 SW - 204
05/26/22 17:00 49.9 38 6 16 SW - 222
05/26/22 16:00 51.2 36 8 17 SW - 229
05/26/22 15:00 50.5 35 8 19 W - 253
05/26/22 14:00 49.4 37 9 21 SW - 246
05/26/22 13:00 49.1 39 9 22 SW - 236
05/26/22 12:00 46.7 40 10 22 SW - 229
05/26/22 11:00 45.1 40 9 20 SW - 230
05/26/22 10:00 43.9 41 12 23 W - 272
05/26/22 09:00 41.5 46 12 21 W - 285
05/26/22 08:00 40.2 53 10 18 NW - 296
05/26/22 07:00 38.6 60 10 15 NW - 317
05/26/22 06:00 35.6 66 10 15 NW - 313
05/26/22 05:00 35.2 68 12 19 NW - 299
05/26/22 04:00 35.9 72 13 19 NW - 307
05/26/22 03:00 36.7 72 13 19 NW - 302
05/26/22 02:00 37.0 71 13 20 NW - 307
05/26/22 01:00 37.4 70 12 19 NW - 314
05/26/22 00:00 38.2 68 8 14 NW - 302
05/25/22 23:00 39.2 68 11 18 NW - 303
05/25/22 22:00 39.4 65 10 22 W - 274
05/25/22 21:00 39.7 65 9 23 SW - 239
05/25/22 20:00 40.8 58 10 22 SW - 246
05/25/22 19:00 42.2 56 10 23 W - 248
05/25/22 18:00 43.9 55 11 29 SW - 239
05/25/22 17:00 42.2 58 10 25 SW - 232
05/25/22 16:00 41.1 59 12 26 SW - 222